Thunder radar more information blitzortung!


Radar de pluja more information rain snow radar


Visita la nostra xarxa de llocs de meteo:

Template documentation
and downloads

And another site



No particular awareness of the weather is required.    There are no Weather-warnings

Pagina Historial Weather Underground text

Diari Resum Juliol 22, 2017 Unitats:  Mètric    Imperial   Tant
« Previous Dia
SegĂźent Dia »
Diari Setmana Mensual Anual Personalitzada
  Maxima: Minima: Media:
Temperatura: -17.8 °C -7.4 °C -3.2 °C
Punt de rosada: -17.8 °C -8.5 °C -7.6 °C
Humitat: Humidity % 46 % 63 %
Wind Speed: 0 km/h 0 km/h 9 km/h
RĂ fegues de vent: 0 km/h - -
Vent:- - South
Pression baro: 0 hPa 34198.6 hPa -
Precipitacions: 0 mm    
Historical Graphs
 
 
Dades de taula per Juliol 22, 2017
Temps Temperatura Punt de rosada Pression baro Vent Wind Speed RĂ fegues de vent Humitat Rainfall Rate (Hourly)
-17.8 °C -17.8 °C 0 hPa Calm     Humidity % 0 mm
00:00 -6.9 °C -8.2 °C 34256.2 hPa Calm     86 % 0 mm
00:03 -5.3 °C -8 °C 34198.6 hPa WSW 3.1 km/h 3.1 km/h 74 % 0 mm
00:10 -6.9 °C -8.1 °C 34256.2 hPa Calm   2.6 km/h 87 % 0 mm
00:20 -6.9 °C -8.2 °C 34256.2 hPa Calm     87 % 0 mm
00:30 -6.9 °C -8.2 °C 34256.2 hPa Calm     87 % 0 mm
00:40 -7 °C -8.2 °C 34293.4 hPa Calm     87 % 0 mm
00:50 -7.1 °C -8.3 °C 34293.4 hPa SSW 5.1 km/h 5.1 km/h 87 % 0 mm
01:00 -7.2 °C -8.4 °C 34256.2 hPa SW 2.6 km/h 7.7 km/h 87 % 0 mm
01:10 -7.2 °C -8.3 °C 34256.2 hPa Calm   2.6 km/h 88 % 0 mm
01:20 -7.2 °C -8.3 °C 34256.2 hPa Calm     88 % 0 mm
01:30 -7.2 °C -8.3 °C 34256.2 hPa WSW 2.6 km/h 2.6 km/h 88 % 0 mm
01:40 -7.2 °C -8.3 °C 34256.2 hPa NNE 2.6 km/h 5.1 km/h 88 % 0 mm
01:50 -7.4 °C -8.5 °C 34256.2 hPa Calm   2.6 km/h 88 % 0 mm
02:00 -7.3 °C -8.4 °C 34256.2 hPa SSW 2.6 km/h 5.1 km/h 88 % 0 mm
02:10 -7.3 °C -8.4 °C 34256.2 hPa Calm   2.6 km/h 89 % 0 mm
02:20 -7.3 °C -8.3 °C 34256.2 hPa Calm     89 % 0 mm
02:30 -7.2 °C -8.2 °C 34256.2 hPa SW 2.6 km/h 5.1 km/h 89 % 0 mm
02:40 -7.2 °C -8.3 °C 34256.2 hPa SW 2.6 km/h 5.1 km/h 88 % 0 mm
02:50 -7.1 °C -8.1 °C 34256.2 hPa SW 2.6 km/h 5.1 km/h 89 % 0 mm
03:00 -6.9 °C -8.1 °C 34256.2 hPa SW 2.6 km/h 5.1 km/h 88 % 0 mm
03:10 -6.4 °C -7.7 °C 34256.2 hPa SE 2.6 km/h 5.1 km/h 87 % 0 mm
03:20 -6.1 °C -7.7 °C 34256.2 hPa NE 2.6 km/h 7.7 km/h 84 % 0 mm
03:30 -5.8 °C -7.6 °C 34256.2 hPa NE 5.1 km/h 7.7 km/h 82 % 0 mm
03:40 -5.8 °C -7.7 °C 34293.4 hPa NE 7.7 km/h 7.7 km/h 81 % 0 mm
03:50 -5.5 °C -7.5 °C 34293.4 hPa ENE 5.1 km/h 7.7 km/h 80 % 0 mm
04:00 -5.4 °C -7.5 °C 34293.4 hPa NE 2.6 km/h 10.3 km/h 79 % 0 mm
04:10 -5.1 °C -7.3 °C 34293.4 hPa NE 2.6 km/h 7.7 km/h 78 % 0 mm
04:20 -5.1 °C -7.6 °C 34293.4 hPa NE 5.1 km/h 5.1 km/h 76 % 0 mm
04:30 -4.7 °C -7.3 °C 34293.4 hPa Calm   7.7 km/h 75 % 0 mm
04:40 -4.6 °C -7.2 °C 34293.4 hPa SSW 5.1 km/h 7.7 km/h 75 % 0 mm
09:39 -4.6 °C -7.2 °C 34293.4 hPa East 6 km/h 6.3 km/h 75 % 0 mm
09:44 -4.4 °C -7.3 °C 34293.4 hPa SSE 9 km/h 9 km/h 73 % 0 mm
09:49 -4.4 °C -7.4 °C 34293.4 hPa SE 9 km/h 9 km/h 72 % 0 mm
09:55 -4.2 °C -7.2 °C 34293.4 hPa East 2.6 km/h 7.7 km/h 72 % 0 mm
10:00 -4.3 °C -7.5 °C 34293.4 hPa ESE 5.1 km/h 12.9 km/h 70 % 0 mm
10:05 -3.9 °C -7.1 °C 34293.4 hPa ESE 5.1 km/h 7.7 km/h 71 % 0 mm
10:10 -3.9 °C -7.3 °C 34327.3 hPa East 2.6 km/h 10.3 km/h 69 % 0 mm
10:15 -3.8 °C -7.2 °C 34327.3 hPa East 5.1 km/h 10.3 km/h 69 % 0 mm
10:20 -3.6 °C -6.9 °C 34327.3 hPa Calm   10.3 km/h 69 % 0 mm
10:25 -3.3 °C -6.9 °C 34293.4 hPa South 6 km/h 6 km/h 68 % 0 mm
10:30 -3.3 °C -6.9 °C 34293.4 hPa WSW 6 km/h 6.8 km/h 68 % 0 mm
10:35 -3.3 °C -7 °C 34293.4 hPa West 9 km/h 9 km/h 67 % 0 mm
10:40 -3.7 °C -7.6 °C 34293.4 hPa SE 12.9 km/h 15.6 km/h 65 % 0 mm
10:45 -3.5 °C -7.3 °C 34293.4 hPa East 7.7 km/h 12.9 km/h 66 % 0 mm
10:50 -3.2 °C -7 °C 34293.4 hPa North 6 km/h 6 km/h 66 % 0 mm
10:55 -2.9 °C -6.9 °C 34293.4 hPa ESE 5.1 km/h 5.1 km/h 65 % 0 mm
11:00 -2.8 °C -7.1 °C 34293.4 hPa NNW 9 km/h 9 km/h 63 % 0 mm
11:05 -2.7 °C -6.9 °C 34293.4 hPa SW 9.3 km/h 9.3 km/h 63 % 0 mm
11:06 -2.7 °C -7 °C 34293.4 hPa SW 11.9 km/h 11.9 km/h 63 % 0 mm
11:11 -2.7 °C -7.1 °C 34293.4 hPa SW 9 km/h 9 km/h 62 % 0 mm
11:12 -2.7 °C -7.1 °C 34293.4 hPa SSW 6 km/h 6 km/h 62 % 0 mm
11:17 -2.6 °C -7.1 °C 34293.4 hPa SW 11.9 km/h 11.9 km/h 61 % 0 mm
11:22 -2.6 °C -7.3 °C 34293.4 hPa West 11.9 km/h 11.9 km/h 60 % 0 mm
11:27 -2.4 °C -7.3 °C 34293.4 hPa SSE 11.9 km/h 11.9 km/h 59 % 0 mm
11:32 -2.2 °C -7.3 °C 34293.4 hPa SSE 6 km/h 6 km/h 58 % 0 mm
11:37 -2.1 °C -7.3 °C 34256.2 hPa ENE 11.1 km/h 11.1 km/h 57 % 0 mm
11:42 -2.2 °C -7.4 °C 34256.2 hPa NE 9 km/h 9.3 km/h 57 % 0 mm
11:47 -2.3 °C -7.4 °C 34256.2 hPa SW 9.3 km/h 9.3 km/h 57 % 0 mm
11:52 -1.7 °C -7.1 °C 34256.2 hPa SW 16.1 km/h 16.1 km/h 56 % 0 mm
11:57 -1.8 °C -7.4 °C 34256.2 hPa SSW 11.9 km/h 11.9 km/h 54 % 0 mm
12:02 -1.6 °C -7.7 °C 34256.2 hPa South 11.9 km/h 11.9 km/h 52 % 0 mm
12:07 -1.5 °C -7.4 °C 34256.2 hPa SW 15 km/h 15 km/h 53 % 0 mm
12:12 -1.6 °C -7.4 °C 34256.2 hPa SW 15 km/h 15 km/h 53 % 0 mm
12:17 -1.3 °C -7.6 °C 34256.2 hPa ENE 10.3 km/h 10.3 km/h 51 % 0 mm
12:22 -1.6 °C -7.7 °C 34256.2 hPa WSW 6.3 km/h 6.3 km/h 52 % 0 mm
12:27 -1.7 °C -7.7 °C 34256.2 hPa ESE 15 km/h 15 km/h 52 % 0 mm
12:32 -1.7 °C -7.6 °C 34256.2 hPa SW 6 km/h 6 km/h 53 % 0 mm
12:37 -1.8 °C -7.6 °C 34256.2 hPa NE 11.9 km/h 11.9 km/h 53 % 0 mm
12:42 -2.3 °C -7.7 °C 34256.2 hPa ESE 32.8 km/h 32.8 km/h 56 % 0 mm
12:47 -2.2 °C -7.3 °C 34256.2 hPa South 17.9 km/h 17.9 km/h 57 % 0 mm
12:52 -2.2 °C -7.3 °C 34256.2 hPa ESE 11.9 km/h 11.9 km/h 58 % 0 mm
12:57 -2.4 °C -7.4 °C 34256.2 hPa ESE 17.9 km/h 17.9 km/h 58 % 0 mm
13:02 -2.7 °C -7.5 °C 34256.2 hPa ESE 23.8 km/h 23.8 km/h 59 % 0 mm
13:07 -2.7 °C -7.5 °C 34256.2 hPa ESE 15 km/h 15 km/h 59 % 0 mm
13:12 -2.7 °C -7.4 °C 34256.2 hPa East 11.9 km/h 11.9 km/h 60 % 0 mm
13:17 -2.7 °C -7.4 °C 34256.2 hPa SSW 15 km/h 15 km/h 60 % 0 mm
13:22 -2.7 °C -7.5 °C 34293.4 hPa SSW 15 km/h 15 km/h 59 % 0 mm
13:27 -2.7 °C -7.5 °C 34293.4 hPa WSW 9 km/h 9 km/h 59 % 0 mm
13:32 -2.6 °C -7.4 °C 34293.4 hPa WSW 6 km/h 6.3 km/h 59 % 0 mm
13:37 -2.4 °C -7.3 °C 34293.4 hPa SSW 9 km/h 9 km/h 59 % 0 mm
13:42 -2.2 °C -7.1 °C 34293.4 hPa ESE 6 km/h 6 km/h 59 % 0 mm
13:47 -2.2 °C -7.1 °C 34293.4 hPa South 9 km/h 9 km/h 59 % 0 mm
13:52 -1.8 °C -6.7 °C 34293.4 hPa SW 11.9 km/h 11.9 km/h 59 % 0 mm
13:57 -1.8 °C -6.8 °C 34293.4 hPa WSW 3.1 km/h 3.1 km/h 58 % 0 mm
13:59 -1.8 °C -6.8 °C 34293.4 hPa South 6 km/h 6 km/h 58 % 0 mm
14:04 -1.8 °C -6.8 °C 34293.4 hPa SSW 6.3 km/h   58 % 0 mm
14:09 -1.9 °C -6.9 °C 34293.4 hPa South 6 km/h 6 km/h 58 % 0 mm
14:15 -1.9 °C -7.3 °C 34293.4 hPa SSW 7.7 km/h 12.9 km/h 56 % 0 mm
14:20 -1.7 °C -7.1 °C 34293.4 hPa SSW 5.1 km/h 15.6 km/h 56 % 0 mm
14:25 -1.7 °C -7.1 °C 34256.2 hPa WSW 7.7 km/h 15.6 km/h 56 % 0 mm
14:30 -1.5 °C -7.1 °C 34256.2 hPa South 11.9 km/h 11.9 km/h 55 % 0 mm
14:35 -1.4 °C -7 °C 34256.2 hPa SSW 7.7 km/h 23.3 km/h 55 % 0 mm
14:40 -1.2 °C -6.9 °C 34222.3 hPa SW 14.5 km/h 14.5 km/h 54 % 0 mm
14:45 -1.2 °C -6.9 °C 34222.3 hPa SW 11.9 km/h 11.9 km/h 54 % 0 mm
14:50 -0.9 °C -6.8 °C 34222.3 hPa SSE 11.9 km/h 11.9 km/h 53 % 0 mm
14:55 -0.4 °C -6.5 °C 34256.2 hPa West 11.9 km/h 11.9 km/h 52 % 0 mm
15:00 -0.7 °C -6.9 °C 34256.2 hPa SW 6.8 km/h 6.8 km/h 51 % 0 mm
15:05 -0.7 °C -6.9 °C 34256.2 hPa SW 20.9 km/h 20.9 km/h 51 % 0 mm
15:10 -0.6 °C -6.9 °C 34222.3 hPa SSW 15 km/h 15 km/h 51 % 0 mm
15:15 -0.7 °C -7.2 °C 34222.3 hPa ENE 6 km/h 6 km/h 50 % 0 mm
15:20 -0.2 °C -6.9 °C 34222.3 hPa WNW 9.8 km/h 9.8 km/h 49 % 0 mm
15:25 -0.3 °C -7.1 °C 34256.2 hPa SW 7.7 km/h 15.6 km/h 48 % 0 mm
15:30 -0.2 °C -7.2 °C 34256.2 hPa SSW 11.9 km/h 11.9 km/h 47 % 0 mm
15:35 -0.4 °C -7.1 °C 34256.2 hPa ESE 15 km/h 15 km/h 49 % 0 mm
15:40 -0.5 °C -7.2 °C 34256.2 hPa ESE 16.6 km/h 16.6 km/h 49 % 0 mm
15:45 -0.8 °C -7.1 °C 34256.2 hPa ESE 7.7 km/h 18.2 km/h 51 % 0 mm
15:50 -0.6 °C -6.9 °C 34256.2 hPa East 18.3 km/h 18.3 km/h 51 % 0 mm
15:55 -0.8 °C -7.1 °C 34256.2 hPa ESE 7.7 km/h 20.8 km/h 51 % 0 mm
16:00 -0.9 °C -7.2 °C 34256.2 hPa ESE 17.9 km/h 17.9 km/h 51 % 0 mm
16:05 -1.2 °C -7.4 °C 34256.2 hPa East 7.7 km/h 18.2 km/h 51 % 0 mm
16:10 -1.1 °C -7.2 °C 34256.2 hPa ENE 15.6 km/h 25.9 km/h 52 % 0 mm
16:15 -0.6 °C -7.1 °C 34256.2 hPa SSE 7.7 km/h 33.6 km/h 50 % 0 mm
16:20 -0.2 °C -6.9 °C 34256.2 hPa WNW 11.9 km/h 11.9 km/h 49 % 0 mm
16:25 0.3 °C -6.8 °C 34256.2 hPa SSE 9.3 km/h 9.3 km/h 47 % 0 mm
16:30 -0.3 °C -6.9 °C 34256.2 hPa NE 9.3 km/h 9.3 km/h 49 % 0 mm
16:35 -0.3 °C -7.1 °C 34256.2 hPa WSW 15 km/h 15 km/h 48 % 0 mm
16:40 0.2 °C -6.8 °C 34256.2 hPa SW 6 km/h 6 km/h 47 % 0 mm
16:45 0.2 °C -6.8 °C 34256.2 hPa WSW 15 km/h 15 km/h 47 % 0 mm
16:50 -0.1 °C -7.1 °C 34256.2 hPa SSW 7.7 km/h 18.2 km/h 47 % 0 mm
16:55 -0.2 °C -7.4 °C 34256.2 hPa SSE 5.1 km/h 18.2 km/h 46 % 0 mm
17:00 -0.9 °C -7.9 °C 34256.2 hPa ESE 5.1 km/h 12.9 km/h 47 % 0 mm
17:05 -0.7 °C -7.7 °C 34256.2 hPa ESE 5.1 km/h 15.6 km/h 47 % 0 mm
17:10 -0.6 °C -7.6 °C 34256.2 hPa South 5.1 km/h 12.9 km/h 47 % 0 mm
17:15 -0.8 °C -7.6 °C 34256.2 hPa SSW 7.7 km/h 20.8 km/h 48 % 0 mm
17:17 -0.8 °C -7.4 °C 34256.2 hPa WSW 15 km/h 15 km/h 49 % 0 mm
17:22 -1 °C -7.6 °C 34256.2 hPa SW 15 km/h 15 km/h 49 % 0 mm
17:27 -1.2 °C -7.6 °C 34256.2 hPa SW 17.9 km/h 17.9 km/h 50 % 0 mm
17:32 -1.2 °C -7.6 °C 34256.2 hPa SW 17.9 km/h 17.9 km/h 50 % 0 mm
17:37 -1.3 °C -7.7 °C 34256.2 hPa SW 17.9 km/h 17.9 km/h 50 % 0 mm
17:42 -1.4 °C -7.6 °C 34256.2 hPa West 17.9 km/h 17.9 km/h 51 % 0 mm
17:47 -1.6 °C -7.8 °C 34256.2 hPa WSW 26.9 km/h 26.9 km/h 51 % 0 mm
17:55 -1.7 °C -7.7 °C 34222.3 hPa SSW 20.9 km/h 20.9 km/h 52 % 0 mm
18:00 -1.7 °C -7.6 °C 34222.3 hPa SW 17.9 km/h 17.9 km/h 53 % 0 mm
18:05 -1.7 °C -7.6 °C 34256.2 hPa South 17.9 km/h 17.9 km/h 53 % 0 mm
18:10 -1.3 °C -7.4 °C 34256.2 hPa SW 11.9 km/h 11.9 km/h 52 % 0 mm
18:15 -1.2 °C -7.3 °C 34256.2 hPa SW 15 km/h 15 km/h 52 % 0 mm
18:20 -1.1 °C -7.2 °C 34222.3 hPa SSW 23.8 km/h 23.8 km/h 52 % 0 mm
18:25 -1.2 °C -7.4 °C 34222.3 hPa SSW 20.9 km/h 20.9 km/h 51 % 0 mm
18:30 -1.4 °C -7.7 °C 34222.3 hPa SSW 17.9 km/h 17.9 km/h 51 % 0 mm
18:35 -1.4 °C -7.5 °C 34256.2 hPa WSW 15 km/h 15 km/h 52 % 0 mm
18:40 -1.7 °C -7.9 °C 34256.2 hPa WSW 20.9 km/h 20.9 km/h 51 % 0 mm
18:45 -1.8 °C -7.7 °C 34256.2 hPa SW 20.9 km/h 20.9 km/h 53 % 0 mm
18:50 -1.9 °C -7.8 °C 34256.2 hPa West 23.8 km/h 23.8 km/h 53 % 0 mm
18:51 -1.9 °C -7.8 °C 34256.2 hPa South 23.8 km/h 23.8 km/h 53 % 0 mm
18:56 -2.1 °C -7.8 °C 34256.2 hPa SW 32.8 km/h 32.8 km/h 54 % 0 mm
19:01 -2.2 °C -7.8 °C 34256.2 hPa SW 23.8 km/h 23.8 km/h 54 % 0 mm
19:06 -2.2 °C -7.8 °C 34256.2 hPa SW 20.9 km/h 20.9 km/h 54 % 0 mm
19:10 -4.4 °C -7.9 °C 34361.1 hPa Calm     68 % 0 mm
19:11 -2 °C -7.7 °C 34256.2 hPa South 15 km/h 15 km/h 54 % 0 mm
19:16 -1.8 °C -7.5 °C 34256.2 hPa WSW 22.5 km/h 22.5 km/h 54 % 0 mm
19:20 -4.4 °C -7.8 °C 34361.1 hPa Calm   2.6 km/h 69 % 0 mm
19:21 -1.8 °C -7.4 °C 34256.2 hPa South 15 km/h 15 km/h 54 % 0 mm
19:26 -1.8 °C -7.5 °C 34256.2 hPa SW 20.3 km/h 20.3 km/h 54 % 0 mm
19:30 -4.5 °C -7.7 °C 34361.1 hPa WNW 2.6 km/h 2.6 km/h 70 % 0 mm
19:31 -1.9 °C -7.6 °C 34256.2 hPa SSW 15 km/h 15 km/h 54 % 0 mm
19:36 -1.9 °C -7.6 °C 34256.2 hPa SSW 14 km/h 14 km/h 54 % 0 mm
19:40 -4.6 °C -7.7 °C 34361.1 hPa Calm   2.6 km/h 71 % 0 mm
19:41 -1.9 °C -7.6 °C 34256.2 hPa SW 24.3 km/h 24.3 km/h 54 % 0 mm
19:46 -2.1 °C -7.9 °C 34256.2 hPa South 20.9 km/h 20.9 km/h 53 % 0 mm
19:50 -4.7 °C -7.7 °C 34361.1 hPa Calm   5.1 km/h 71 % 0 mm
19:51 -2.2 °C -8 °C 34256.2 hPa SSE 15 km/h 15.3 km/h 53 % 0 mm
19:56 -2.2 °C -8.1 °C 34256.2 hPa South 20.9 km/h 20.9 km/h 53 % 0 mm
20:00 -4.7 °C -7.8 °C 34361.1 hPa Calm   2.6 km/h 71 % 0 mm
20:01 -2.3 °C -7.9 °C 34256.2 hPa SSW 20.9 km/h 20.9 km/h 54 % 0 mm
20:06 -2.4 °C -8 °C 34256.2 hPa SW 11.9 km/h 11.9 km/h 54 % 0 mm
20:10 -4.7 °C -7.7 °C 34361.1 hPa Calm   2.6 km/h 72 % 0 mm
20:11 -2.4 °C -8.1 °C 34256.2 hPa SSW 15 km/h 15 km/h 54 % 0 mm
20:16 -2.5 °C -8.1 °C 34256.2 hPa SW 11.9 km/h 11.9 km/h 54 % 0 mm
20:20 -4.7 °C -7.7 °C 34361.1 hPa WSW 2.6 km/h 5.1 km/h 72 % 0 mm
20:21 -2.5 °C -8.1 °C 34256.2 hPa SW 9 km/h 9 km/h 54 % 0 mm
20:26 -2.5 °C -7.9 °C 34256.2 hPa SSW 11.9 km/h 11.9 km/h 55 % 0 mm
20:30 -4.7 °C -7.6 °C 34395 hPa Calm   5.1 km/h 73 % 0 mm
20:31 -2.6 °C -8.1 °C 34256.2 hPa SSW 11.9 km/h 11.9 km/h 55 % 0 mm
20:36 -2.7 °C -8.1 °C 34256.2 hPa WNW 17.9 km/h 17.9 km/h 55 % 0 mm
20:40 -4.8 °C -7.6 °C 34395 hPa WSW 5.1 km/h 7.7 km/h 73 % 0 mm
20:41 -2.7 °C -8 °C 34256.2 hPa SSW 14 km/h 14 km/h 56 % 0 mm
20:46 -2.8 °C -7.9 °C 34256.2 hPa WSW 15 km/h 15 km/h 57 % 0 mm
20:50 -4.8 °C -7.5 °C 34395 hPa WSW 2.6 km/h 5.1 km/h 74 % 0 mm
20:51 -2.9 °C -7.9 °C 34256.2 hPa SW 9 km/h 9 km/h 58 % 0 mm
20:56 -2.9 °C -7.9 °C 34256.2 hPa SW 15 km/h 15 km/h 58 % 0 mm
21:00 -4.8 °C -7.4 °C 34395 hPa West 2.6 km/h 2.6 km/h 75 % 0 mm
21:01 -3 °C -7.9 °C 34256.2 hPa SW 15 km/h 15 km/h 58 % 0 mm
21:06 -3.1 °C -7.9 °C 34256.2 hPa SW 15 km/h 15 km/h 59 % 0 mm
21:10 -4.9 °C -7.6 °C 34395 hPa NE 2.6 km/h 5.1 km/h 75 % 0 mm
21:11 -3.1 °C -7.9 °C 34256.2 hPa SW 15 km/h 15 km/h 59 % 0 mm
21:16 -3.2 °C -7.9 °C 34256.2 hPa SW 15 km/h 15 km/h 59 % 0 mm
21:20 -5.1 °C -7.6 °C 34395 hPa ESE 5.1 km/h 7.7 km/h 76 % 0 mm
21:21 -3.2 °C -7.9 °C 34293.4 hPa WSW 9 km/h 9 km/h 60 % 0 mm
21:26 -3.3 °C -7.9 °C 34293.4 hPa SW 14 km/h 14 km/h 60 % 0 mm
21:30 -5.2 °C -7.7 °C 34395 hPa East 2.6 km/h 5.1 km/h 75 % 0 mm
21:31 -3.3 °C -8 °C 34293.4 hPa SSW 11.9 km/h 11.9 km/h 60 % 0 mm
21:36 -3.4 °C -8 °C 34293.4 hPa SW 9 km/h 9 km/h 60 % 0 mm
21:40 -5.2 °C -7.8 °C 34395 hPa East 2.6 km/h 2.6 km/h 75 % 0 mm
21:41 -3.4 °C -7.9 °C 34293.4 hPa WSW 15 km/h 15 km/h 61 % 0 mm
21:46 -3.5 °C -8 °C 34293.4 hPa SW 11.9 km/h 11.9 km/h 61 % 0 mm
21:50 -5.3 °C -7.9 °C 34395 hPa Calm     75 % 0 mm
21:51 -3.6 °C -8.1 °C 34327.3 hPa SSW 9 km/h 9 km/h 61 % 0 mm
21:56 -3.6 °C -8.1 °C 34327.3 hPa WSW 9 km/h 9 km/h 61 % 0 mm
22:00 -5.4 °C -7.8 °C 34428.8 hPa SSE 2.6 km/h 5.1 km/h 76 % 0 mm
22:01 -3.6 °C -8.1 °C 34327.3 hPa WSW 9 km/h 9 km/h 61 % 0 mm
22:06 -3.7 °C -8.2 °C 34327.3 hPa SW 9 km/h 9 km/h 61 % 0 mm
22:10 -5.4 °C -7.8 °C 34395 hPa Calm   5.1 km/h 76 % 0 mm
22:11 -3.7 °C -8.1 °C 34327.3 hPa South 11.9 km/h 11.9 km/h 62 % 0 mm
22:16 -3.8 °C -8.1 °C 34327.3 hPa SW 6 km/h 6 km/h 62 % 0 mm
22:20 -5.3 °C -7.8 °C 34395 hPa Calm   5.1 km/h 76 % 0 mm
22:21 -3.8 °C -8.2 °C 34327.3 hPa SW 9 km/h 9 km/h 62 % 0 mm
22:26 -3.8 °C -8 °C 34327.3 hPa SW 6 km/h 6 km/h 63 % 0 mm
22:30 -5.3 °C -7.8 °C 34395 hPa Calm     76 % 0 mm
22:31 -3.9 °C -8.1 °C 34327.3 hPa SW 8 km/h 8 km/h 63 % 0 mm
22:36 -3.9 °C -8.1 °C 34327.3 hPa SW 6 km/h 6 km/h 63 % 0 mm
22:40 -5.3 °C -7.6 °C 34395 hPa ENE 2.6 km/h 2.6 km/h 77 % 0 mm
22:41 -3.9 °C -8 °C 34327.3 hPa SW 9 km/h 9 km/h 64 % 0 mm
22:46 -3.9 °C -7.8 °C 34327.3 hPa WSW 3.1 km/h 3.1 km/h 65 % 0 mm
22:50 -5.2 °C -7.6 °C 34395 hPa Calm   5.1 km/h 77 % 0 mm
22:51 -4 °C -7.9 °C 34327.3 hPa WSW 3.1 km/h 3.1 km/h 65 % 0 mm
22:56 -4 °C -7.9 °C 34327.3 hPa WNW 3.1 km/h   65 % 0 mm
22:57 -4 °C -7.9 °C 34327.3 hPa Calm     65 % 0 mm
23:00 -5.2 °C -7.6 °C 34395 hPa NE 2.6 km/h 5.1 km/h 77 % 0 mm
23:02 -4 °C -7.9 °C 34327.3 hPa West 3.1 km/h 3.1 km/h 65 % 0 mm
23:07 -4.1 °C -7.8 °C 34327.3 hPa Calm     66 % 0 mm
23:10 -5.1 °C -7.4 °C 34395 hPa NNE 2.6 km/h 5.1 km/h 77 % 0 mm
23:12 -4.1 °C -7.8 °C 34327.3 hPa WSW 2.3 km/h   66 % 0 mm
23:17 -4.1 °C -7.9 °C 34327.3 hPa Calm     66 % 0 mm
23:20 -5.1 °C -7.4 °C 34395 hPa NNE 5.1 km/h 7.7 km/h 77 % 0 mm
23:22 -4.1 °C -7.9 °C 34327.3 hPa Calm     66 % 0 mm
23:27 -4.2 °C -7.8 °C 34327.3 hPa WSW 3.7 km/h 3.7 km/h 67 % 0 mm
23:30 -5.1 °C -7.6 °C 34395 hPa NNE 5.1 km/h 7.7 km/h 76 % 0 mm
23:32 -4.2 °C -7.8 °C 34327.3 hPa Calm     67 % 0 mm
23:37 -4.2 °C -7.8 °C 34327.3 hPa WSW 6.3 km/h   67 % 0 mm
23:40 -5.2 °C -7.6 °C 34395 hPa Calm   5.1 km/h 77 % 0 mm
23:42 -4.2 °C -7.8 °C 34327.3 hPa WSW 6 km/h 6 km/h 67 % 0 mm
23:47 -4.2 °C -7.8 °C 34327.3 hPa West 6.8 km/h 6.8 km/h 67 % 0 mm
23:50 -5.2 °C -7.6 °C 34395 hPa Calm     77 % 0 mm
23:52 -4.3 °C -7.8 °C 34361.1 hPa WSW 3.1 km/h   68 % 0 mm
23:57 -4.3 °C -7.8 °C 34361.1 hPa WSW 3.1 km/h 3.1 km/h 68 % 0 mm
Meteo Sesrovires
Elogis d' Weather Underground - 3.75 mb

Guio original per  Jim McMurry - jmcmurry@mwt.net Adaptat per a la plantilla per  Wim van der Kuil - Leuven-Template.eu

Trobareu la nostra informacio del temps tambe a:

Weather Underground

AWEKAS